The Pas, Canada
Current Conditions -  °F | °C
As of 3:00 PM on Wednesday 26 Nov 2014 (Local Time) from CYQD Reporting Station
Few Clouds Few Clouds  
Wind Chill: -21°   Ceiling: Unl
Heat Index: -6°   Visibility: 15mi
Dew Point: -15°   Wind: 8mph
Humidity: 65%   Direction: 260°W
Pressure: 30.48"   Gusts: NA
Location:  53.81°N, 101.25°W
Report Text: CYQD 262100Z 26007KT 15SM FEW220 M21/M26 A3048 RMK CI1 SLP358
Loading
Personal Weather Stations






























Interactive Weather Map New forecast layout! Learn more

10-Day Weather Forecast

Advertisements
Track Severe Weather on mobile